Tiempo atmosférico en la estación meteorológica de Bello, Teruel (1006 m.)



Fecha
DESCASC
Temp. máxima en grados centígrados (hora)
DESCASC
Temp. mínima en grados centígrados (hora)
DESCASC
Temp. media en grados centígrados
DESCASC
Racha de viento máxima en m/sg (hora)
DESCASC
Velocidad máxima media en intervalos de 10 minutos(hora)
DESCASC
Precipitaciones diarias en mm
DESCASC
Precipitaciones de 00:00 a 06:00 en mm
DESCASC
Precipitaciones de 06:00 a 12:00 en mm
DESCASC
Precipitaciones de 12:00 a 18:00 en mm
DESCASC
Precipitaciones de 18:00 a 24:00 en mm
DESCASC
29-10-2020 18.3 (16:10) 4.1 (23:59) 11.2 5.83 (10:20) 4.17 (10:20) 0 0 0 0 0
28-10-2020 17.3 (15:30) 1.9 (07:30) 9.6 9.17 (13:00) 5.83 (12:40) 0 0 0 0 0
27-10-2020 13.6 (15:30) 1.7 (00:00) 7.7 11.94 (14:30) 6.39 (15:00) 0 0 0 0 0
26-10-2020 9.8 (16:00) 3.1 (00:00) 6.5 15.28 (17:30) 8.33 (10:30) 0 0 0 0 0
25-10-2020 15.1 (14:40) 6.6 (00:00) 10.9 16.39 (10:30) 10.28 (11:30) 3.6 0 0 0 3.6
24-10-2020 15.3 (15:00) 3.8 (00:00) 9.6 10.56 (15:30) 6.39 (15:30) 0 0 0 0 0
23-10-2020 14.3 (15:00) 5.2 (00:00) 9.8 11.94 (11:00) 8.33 (11:10) 1 0 0 0.4 0.6
22-10-2020 17.8 (14:20) 7.5 (00:00) 12.6 8.33 (14:40) 6.11 (18:30) 0.6 0 0 0.6 0
21-10-2020 18.9 (15:40) 8.8 (00:00) 13.8 13.89 (15:50) 8.61 (15:50) 0 0 0 0 0
20-10-2020 19.2 (16:40) 11.1 (00:00) 15.2 18.33 (21:10) 13.89 (21:20) 0 0 0 0 0
19-10-2020 24 (15:50) 1.3 (00:00) 12.6 15.83 (23:30) 11.39 (23:50) 0 0 0 0 0
18-10-2020 19.8 (16:30) -2.7 (-00:0) 8.5 4.17 (21:30) 3.33 (21:50) 0 0 0 0 0
17-10-2020 16.7 (16:30) -4 (-00:0) 6.4 6.67 (13:00) 3.61 (13:20) 0 0 0 0 0
16-10-2020 12.3 (16:10) -3.9 (-00:0) 4.2 7.22 (16:00) 4.17 (16:00) 0 0 0 0 0
15-10-2020 11.8 (15:00) 0.2 (00:00) 6 11.39 (15:00) 6.67 (15:00) 0 0 0 0 0
14-10-2020 14 (16:20) 3.9 (00:00) 9 14.72 (15:30) 7.22 (15:50) 0.4 0 0 0 0.4
13-10-2020 17.9 (15:30) 7.7 (00:00) 12.8 11.11 (15:40) 7.22 (16:30) 0 0 0 0 0
12-10-2020 14.1 (16:30) 5.1 (00:00) 9.6 10.83 (18:00) 6.11 (17:00) 0 0 0 0 0
11-10-2020 13.3 (16:40) 6 (00:00) 9.7 11.39 (15:30) 6.67 (16:20) 0 0 0 0 0
10-10-2020 18.1 (14:40) 7.3 (00:00) 12.7 11.11 (16:30) 7.5 (17:50) 0 0 0 0 0
09-10-2020 25.5 (16:30) 4.6 (00:00) 15 9.17 (18:30) 5.28 (18:20) 0 0 0 0 0
08-10-2020 25.4 (17:30) 4.6 (00:00) 15 6.11 (15:20) 3.33 (15:00) 0 0 0 0 0
07-10-2020 21.5 (17:50) 8.5 (00:00) 15 7.5 (15:00) 5 (21:40) 0 0 0 0 0
06-10-2020 21.2 (17:40) 3 (00:00) 12.1 10.83 (16:50) 6.11 (18:10) 0 0 0 0 0
05-10-2020 15.3 (17:50) 3.7 (00:00) 9.5 10.28 (11:10) 6.67 (11:10) 0 0 0 0 0
04-10-2020 14.4 (16:00) 3.8 (00:00) 9.1 17.5 (13:30) 10 (12:00) 0 0 0 0 0
03-10-2020 14.4 (16:30) 4.3 (00:00) 9.3 16.11 (12:30) 8.33 (11:50) 0 0 0 0 0
02-10-2020 14.3 (00:40) 5.3 (00:00) 9.8 20 (11:40) 11.67 (11:40) 11.6 0 2.4 9.2 0
01-10-2020 22 (14:40) 7.3 (07:50) 14.7 9.17 (16:00) 5.83 (16:10) 0 0 0 0 0

Gráficas

Temp. máximas Temp. mínimas Temp. medias Precipitaciones Rachas de viento máximas Velocidades máximas media en intervalos de 10 minutos

Datos horarios

Fecha y hora oficial Temperatura (ºC) Velocidad del viento (km/h) Dirección del viento Racha (km/h) Dirección de racha Precipitación (mm) Presión (hPa) Tendencia (hPa) Humedad (%)
2020-10-30 23:00:00 6.2 4 Oeste 10 Sudoeste 0 -- -- 77
2020-10-30 22:00:00 6.7 0 Calma 13 Sudoeste 0 -- -- 73
2020-10-30 21:00:00 7.8 11 Sudoeste 13 Sudoeste 0 -- -- 71
2020-10-30 20:00:00 9.2 3 Sudoeste 12 Sudoeste 0 -- -- 66
2020-10-30 19:00:00 13.3 0 Calma 10 Norte 0 -- -- 54
2020-10-30 18:00:00 17.7 5 Nordeste 14 Nordeste 0 -- -- 44
2020-10-30 17:00:00 20.6 9 Nordeste 15 Nordeste 0 -- -- 36
2020-10-30 16:00:00 22.6 5 Sur 14 Este 0 -- -- 24
2020-10-30 15:00:00 21.6 4 Este 11 Nordeste 0 -- -- 27
2020-10-30 14:00:00 20.6 4 Sudeste 8 Sur 0 -- -- 33
2020-10-30 13:00:00 18 3 Este 8 Sur 0 -- -- 43
2020-10-30 12:00:00 13.7 3 Sudeste 8 Sudeste 0 -- -- 59
2020-10-30 11:00:00 9.2 3 Nordeste 7 Nordeste 0 -- -- 65
2020-10-30 10:00:00 5.3 2 Oeste 5 Oeste 0 -- -- 86
2020-10-30 09:00:00 0.8 2 Oeste 4 Oeste 0 -- -- 96
2020-10-30 08:00:00 -1.7 3 Oeste 9 Sudoeste 0 -- -- 96
2020-10-30 07:00:00 -2.3 0 Calma 8 Sudoeste 0 -- -- 95
2020-10-30 06:00:00 -1.7 0 Calma 9 Oeste 0 -- -- 93
2020-10-30 05:00:00 0.3 9 Oeste 14 Oeste 0 -- -- 96
2020-10-30 04:00:00 0.2 5 Oeste 6 Oeste 0 -- -- 94
2020-10-30 03:00:00 1.1 0 Calma 7 Sudoeste 0 -- -- 94
2020-10-30 02:00:00 1.9 4 Sudoeste 8 Sudoeste 0 -- -- 92
2020-10-30 01:00:00 2.9 0 Calma 4 Oeste 0 -- -- 92
2020-10-30 00:00:00 4.1 6 Oeste 10 Oeste 0 -- -- 90
2020-10-29 23:00:00 4.7 4 Sudoeste 6 Oeste 0 -- -- 87
2020-10-29 22:00:00 6 0 Calma 5 Sudeste 0 -- -- 84
2020-10-29 21:00:00 9 0 Calma 9 Oeste 0 -- -- 81
2020-10-29 20:00:00 10 3 Noroeste 16 Oeste 0 -- -- 76
2020-10-29 19:00:00 12.6 6 Oeste 9 Oeste 0 -- -- 67
2020-10-29 18:00:00 16 6 Sur 10 Este 0 -- -- 58
2020-10-29 17:00:00 18.2 6 Este 12 Sudeste 0 -- -- 51
2020-10-29 16:00:00 18 4 Nordeste 12 Nordeste 0 -- -- 53
2020-10-29 15:00:00 18.2 4 Oeste 12 Noroeste 0 -- -- 53
2020-10-29 14:00:00 16.4 4 Oeste 13 Sudoeste 0 -- -- 60
2020-10-29 13:00:00 15 2 Sudeste 10 Nordeste 0 -- -- 65
2020-10-29 12:00:00 13.5 2 Sur 15 Sur 0 -- -- 72
2020-10-29 11:00:00 11.5 11 Sur 21 Sudoeste 0 -- -- 79
2020-10-29 10:00:00 9.7 10 Sudoeste 16 Sudoeste 0 -- -- 88
2020-10-29 09:00:00 8.8 5 Sudoeste 9 Sudoeste 0 -- -- 93
2020-10-29 08:00:00 7.8 0 Calma 9 Oeste 0 -- -- 94
2020-10-29 07:00:00 6.9 7 Oeste 15 Oeste 0 -- -- 96
2020-10-29 06:00:00 6.7 5 Oeste 8 Oeste 0 -- -- 96
2020-10-29 05:00:00 4.9 3 Sudoeste 5 Sudoeste 0 -- -- 96
2020-10-29 04:00:00 6.2 2 Sudoeste 7 Sur 0 -- -- 95
2020-10-29 03:00:00 6.4 6 Sur 8 Sur 0 -- -- 95
2020-10-29 02:00:00 7.8 4 Sur 7 Sudoeste 0 -- -- 95
2020-10-29 01:00:00 7.4 2 Sur 8 Noroeste 0 -- -- 95
2020-10-29 00:00:00 7.5 2 Nordeste 5 Nordeste 0 -- -- 93
2020-10-28 23:00:00 7.7 3 Norte 9 Oeste 0 -- -- 92
2020-10-28 22:00:00 7.9 5 Sur 13 Oeste 0 -- -- 90
2020-10-28 21:00:00 9.8 10 Oeste 21 Oeste 0 -- -- 87
2020-10-28 20:00:00 9.7 4 Este 25 Oeste 0 -- -- 86
2020-10-28 19:00:00 10.8 15 Oeste 24 Oeste 0 -- -- 83
2020-10-28 18:00:00 13.5 16 Noroeste 29 Noroeste 0 -- -- 74
2020-10-28 17:00:00 16.2 14 Noroeste 32 Oeste 0 -- -- 62
2020-10-28 16:00:00 16.7 17 Noroeste 32 Oeste 0 -- -- 59
2020-10-28 15:00:00 16.7 19 Oeste 30 Oeste 0 -- -- 61
2020-10-28 14:00:00 16.6 15 Noroeste 31 Noroeste 0 -- -- 58
2020-10-28 13:00:00 15.3 21 Oeste 33 Oeste 0 -- -- 66
2020-10-28 12:00:00 13.1 9 Nordeste 14 Nordeste 0 -- -- 70
2020-10-28 11:00:00 11.4 3 Este 5 Sudeste 0 -- -- 72
2020-10-28 10:00:00 8.5 2 Nordeste 7 Norte 0 -- -- 82
2020-10-28 09:00:00 6.6 2 Sudeste 5 Sudeste 0 -- -- 90
2020-10-28 08:00:00 2.5 2 Sur 8 Sudoeste 0 -- -- 95
2020-10-28 07:00:00 2.6 3 Norte 8 Sudoeste 0 -- -- 92
2020-10-28 06:00:00 2.3 5 Sur 9 Sudeste 0 -- -- 93
2020-10-28 05:00:00 3.3 3 Sur 6 Sur 0 -- -- 89
2020-10-28 04:00:00 4.8 2 Sur 5 Sur 0 -- -- 87
2020-10-28 03:00:00 7.2 3 Nordeste 15 Oeste 0 -- -- 81
2020-10-28 02:00:00 7.4 5 Oeste 10 Oeste 0 -- -- 82
2020-10-28 01:00:00 6.8 6 Noroeste 14 Oeste 0 -- -- 83
2020-10-28 00:00:00 6.7 10 Oeste 24 Oeste 0 -- -- 82
2020-10-27 23:00:00 7.2 9 Noroeste 22 Noroeste 0 -- -- 80
2020-10-27 22:00:00 5.4 5 Oeste 12 Oeste 0 -- -- 87
2020-10-27 21:00:00 6.5 4 Noroeste 13 Noroeste 0 -- -- 84
2020-10-27 20:00:00 8.2 9 Norte 17 Noroeste 0 -- -- 79
2020-10-27 19:00:00 9.4 7 Noroeste 31 Oeste 0 -- -- 69
2020-10-27 18:00:00 11.8 19 Oeste 33 Noroeste 0 -- -- 59
2020-10-27 17:00:00 13.2 21 Noroeste 33 Noroeste 0 -- -- 54
2020-10-27 16:00:00 13.5 21 Noroeste 36 Noroeste 0 -- -- 52
2020-10-27 15:00:00 13.4 23 Noroeste 43 Noroeste 0 -- -- 48
2020-10-27 14:00:00 12.5 22 Noroeste 33 Noroeste 0 -- -- 51
2020-10-27 13:00:00 10.6 20 Noroeste 33 Oeste 0 -- -- 56
2020-10-27 12:00:00 9.7 17 Oeste 26 Oeste 0 -- -- 64
2020-10-27 11:00:00 7.5 8 Noroeste 24 Oeste 0 -- -- 73
2020-10-27 10:00:00 5.7 11 Noroeste 25 Oeste 0 -- -- 78
2020-10-27 09:00:00 3.9 6 Noroeste 10 Oeste 0 -- -- 85
2020-10-27 08:00:00 2.3 5 Norte 21 Oeste 0 -- -- 86
2020-10-27 07:00:00 2.6 14 Oeste 21 Oeste 0 -- -- 86
2020-10-27 06:00:00 1.8 8 Noroeste 11 Noroeste 0 -- -- 87
2020-10-27 05:00:00 2.1 6 Oeste 21 Oeste 0 -- -- 83
2020-10-27 04:00:00 2.5 4 Oeste 15 Oeste 0 -- -- 84
2020-10-27 03:00:00 2.6 9 Oeste 21 Noroeste 0 -- -- 83
2020-10-27 02:00:00 3.9 14 Noroeste 22 Noroeste 0 -- -- 78
2020-10-27 01:00:00 4.1 14 Noroeste 20 Noroeste 0 -- -- 77
2020-10-27 00:00:00 3.5 9 Noroeste 16 Noroeste 0 -- -- 79
2020-10-26 23:00:00 3.5 5 Norte 23 Noroeste 0 -- -- 76
2020-10-26 22:00:00 4.2 13 Oeste 21 Oeste 0 -- -- 73
2020-10-26 21:00:00 4.6 13 Oeste 27 Oeste 0 -- -- 73
2020-10-26 20:00:00 4.9 14 Oeste 20 Oeste 0 -- -- 74
2020-10-26 19:00:00 6 11 Noroeste 33 Noroeste 0 -- -- 69
2020-10-26 18:00:00 7.4 21 Noroeste 55 Noroeste 0 -- -- 61
2020-10-26 17:00:00 9.2 25 Noroeste 40 Noroeste 0 -- -- 54
2020-10-26 16:00:00 9.8 23 Noroeste 40 Noroeste 0 -- -- 58
2020-10-26 15:00:00 9 24 Noroeste 44 Norte 0 -- -- 57
2020-10-26 14:00:00 8.7 22 Noroeste 46 Noroeste 0 -- -- 62
2020-10-26 13:00:00 8.1 26 Noroeste 44 Noroeste 0 -- -- 63
2020-10-26 12:00:00 7 27 Noroeste 45 Noroeste 0 -- -- 68
2020-10-26 11:00:00 6.8 27 Noroeste 45 Noroeste 0 -- -- 72
2020-10-26 10:00:00 5.7 27 Noroeste 45 Noroeste 0 -- -- 77
2020-10-26 09:00:00 4.9 20 Noroeste 31 Noroeste 0 -- -- 80
2020-10-26 08:00:00 4 19 Noroeste 28 Oeste 0 -- -- 82
2020-10-26 07:00:00 3.3 11 Noroeste 21 Noroeste 0 -- -- 86
2020-10-26 06:00:00 3.8 14 Noroeste 34 Noroeste 0 -- -- 84
2020-10-26 05:00:00 4.7 17 Noroeste 28 Noroeste 0 -- -- 82
2020-10-26 04:00:00 4.2 0 Calma 16 Noroeste 0 -- -- 87
2020-10-26 03:00:00 5.3 8 Noroeste 24 Noroeste 0 -- -- 86
2020-10-26 02:00:00 5.8 12 Noroeste 27 Oeste 0 -- -- 89
2020-10-26 01:00:00 6.5 18 Noroeste 27 Noroeste 0 -- -- 85
2020-10-26 00:00:00 6.6 18 Noroeste 33 Noroeste 1 -- -- 88
2020-10-25 23:00:00 8.5 21 Noroeste 55 Noroeste 2.6 -- -- 88
2020-10-25 22:00:00 10.9 31 Oeste 57 Oeste 0 -- -- 82
2020-10-25 21:00:00 11.8 23 Oeste 47 Sudoeste 0 -- -- 76
2020-10-25 20:00:00 12.2 15 Sudoeste 39 Oeste 0 -- -- 73
2020-10-25 19:00:00 12 26 Sudoeste 45 Sudoeste 0 -- -- 71
2020-10-25 18:00:00 12.7 27 Sudoeste 47 Sudoeste 0 -- -- 68
2020-10-25 17:00:00 13.5 28 Oeste 49 Sudoeste 0 -- -- 64
2020-10-25 16:00:00 14.1 32 Oeste 52 Sudoeste 0 -- -- 60
2020-10-25 15:00:00 14.4 31 Oeste 52 Oeste 0 -- -- 58
2020-10-25 14:00:00 14.2 30 Oeste 58 Oeste 0 -- -- 56
2020-10-25 13:00:00 13.8 31 Oeste 54 Sudoeste 0 -- -- 60
2020-10-25 12:00:00 13.3 29 Oeste 59 Oeste 0 -- -- 64
2020-10-25 11:00:00 11.8 30 Oeste 59 Oeste 0 -- -- 69
2020-10-25 10:00:00 10.9 25 Oeste 41 Oeste 0 -- -- 72
2020-10-25 09:00:00 9.4 17 Sudoeste 34 Sudoeste 0 -- -- 75
2020-10-25 08:00:00 8.2 18 Oeste 28 Sudoeste 0 -- -- 80
2020-10-25 07:00:00 8.1 12 Oeste 39 Oeste 0 -- -- 80
2020-10-25 06:00:00 8.7 26 Oeste 42 Oeste 0 -- -- 78
2020-10-25 05:00:00 8.7 25 Oeste 39 Oeste 0 -- -- 78
2020-10-25 04:00:00 8.2 26 Oeste 37 Oeste 0 -- -- 79
2020-10-25 03:00:00 7.8 14 Oeste 26 Oeste 0 -- -- 82
2020-10-25 02:00:00 7.9 5 Norte 18 Oeste 0 -- -- 82
2020-10-25 01:00:00 8 10 Oeste 17 Oeste 0 -- -- 83
2020-10-25 00:00:00 7.6 5 Oeste 12 Este 0 -- -- 84
2020-10-24 23:00:00 7.4 3 Sur 10 Sudoeste 0 -- -- 80
2020-10-24 22:00:00 7.7 9 Oeste 27 Sudoeste 0 -- -- 81
2020-10-24 21:00:00 9.4 19 Sudoeste 31 Sudoeste 0 -- -- 75
2020-10-24 20:00:00 10.4 10 Oeste 32 Oeste 0 -- -- 71
2020-10-24 19:00:00 12.2 18 Oeste 35 Oeste 0 -- -- 63
2020-10-24 18:00:00 14 20 Oeste 31 Oeste 0 -- -- 56
2020-10-24 17:00:00 15 19 Oeste 35 Oeste 0 -- -- 52
2020-10-24 16:00:00 14.9 22 Oeste 38 Oeste 0 -- -- 53
2020-10-24 15:00:00 15.3 19 Oeste 33 Oeste 0 -- -- 53
2020-10-24 14:00:00 14.3 17 Noroeste 32 Noroeste 0 -- -- 55
2020-10-24 13:00:00 12.8 21 Noroeste 31 Noroeste 0 -- -- 62
2020-10-24 12:00:00 10.6 9 Oeste 19 Oeste 0 -- -- 78
2020-10-24 11:00:00 8.6 10 Oeste 16 Oeste 0 -- -- 84
2020-10-24 10:00:00 6.7 8 Noroeste 16 Oeste 0 -- -- 92
2020-10-24 09:00:00 3.8 8 Sudoeste 17 Oeste 0 -- -- 92
2020-10-24 08:00:00 4.6 12 Oeste 22 Oeste 0 -- -- 94
2020-10-24 07:00:00 4.2 9 Oeste 18 Oeste 0 -- -- 93
2020-10-24 06:00:00 4.2 5 Oeste 13 Noroeste 0 -- -- 95
2020-10-24 05:00:00 4.4 4 Oeste 18 Noroeste 0 -- -- 94
2020-10-24 04:00:00 4.1 5 Oeste 11 Nordeste 0 -- -- 95
2020-10-24 03:00:00 5.4 6 Norte 16 Noroeste 0 -- -- 93
2020-10-24 02:00:00 5 6 Oeste 18 Noroeste 0 -- -- 92
2020-10-24 01:00:00 4.4 3 Sudoeste 12 Noroeste 0 -- -- 88
2020-10-24 00:00:00 5.3 5 Sur 10 Norte 0 -- -- 92
2020-10-23 23:00:00 5.5 4 Norte 21 Oeste 0 -- -- 90
2020-10-23 22:00:00 6.5 13 Oeste 22 Oeste 0 -- -- 89
2020-10-23 21:00:00 7 13 Oeste 22 Oeste 0 -- -- 87
2020-10-23 20:00:00 7.9 11 Oeste 20 Oeste 0 -- -- 86
2020-10-23 19:00:00 8.9 15 Oeste 27 Oeste 0.6 -- -- 81
2020-10-23 18:00:00 9.8 12 Noroeste 41 Noroeste 0.4 -- -- 84
2020-10-23 17:00:00 12.5 21 Oeste 39 Oeste 0 -- -- 61
2020-10-23 16:00:00 13.5 21 Noroeste 39 Noroeste 0 -- -- 53
2020-10-23 15:00:00 14.3 22 Oeste 41 Oeste 0 -- -- 52
2020-10-23 14:00:00 12.5 24 Oeste 36 Oeste 0 -- -- 56
2020-10-23 13:00:00 12 25 Noroeste 39 Oeste 0 -- -- 60
2020-10-23 12:00:00 11.4 19 Oeste 43 Oeste 0 -- -- 66
2020-10-23 11:00:00 11.2 29 Oeste 43 Oeste 0 -- -- 66
2020-10-23 10:00:00 9.9 26 Oeste 38 Oeste 0 -- -- 77
2020-10-23 09:00:00 8.8 8 Noroeste 31 Sudoeste 0 -- -- 83
2020-10-23 08:00:00 8.8 22 Oeste 35 Oeste 0 -- -- 80
2020-10-23 07:00:00 9 7 Oeste 18 Oeste 0 -- -- 85
2020-10-23 06:00:00 10.6 10 Oeste 22 Sudoeste 0 -- -- 78
2020-10-23 05:00:00 9.2 14 Oeste 28 Oeste 0 -- -- 82
2020-10-23 04:00:00 10.1 13 Oeste 23 Sudoeste 0 -- -- 84
2020-10-23 03:00:00 9.3 6 Sudoeste 13 Sudoeste 0 -- -- 89
2020-10-23 02:00:00 10.7 9 Sudoeste 21 Sudoeste 0 -- -- 85
2020-10-23 01:00:00 10 8 Sudoeste 15 Sur 0 -- -- 92
2020-10-23 00:00:00 11.2 4 Oeste 11 Sudoeste 0 -- -- 90
2020-10-22 23:00:00 11.7 5 Sudoeste 20 Sur 0 -- -- 89
2020-10-22 22:00:00 12 14 Sur 22 Sur 0 -- -- 89
2020-10-22 21:00:00 12.2 13 Sur 24 Sur 0 -- -- 88
2020-10-22 20:00:00 12.8 13 Sur 28 Sur 0 -- -- 86
2020-10-22 19:00:00 13.2 22 Sur 29 Sur 0 -- -- 86
2020-10-22 18:00:00 14.3 10 Sur 20 Sudoeste 0.2 -- -- 83
2020-10-22 17:00:00 14.5 11 Sur 21 Sur 0.4 -- -- 82
2020-10-22 16:00:00 16.3 8 Sur 19 Oeste 0 -- -- 68
2020-10-22 15:00:00 15.7 14 Oeste 30 Oeste 0 -- -- 69
2020-10-22 14:00:00 17.6 15 Sudoeste 29 Sur 0 -- -- 53
2020-10-22 13:00:00 17.1 16 Sur 23 Sur 0 -- -- 55
2020-10-22 12:00:00 15.7 14 Sur 18 Sur 0 -- -- 63
2020-10-22 11:00:00 13.3 6 Sur 12 Sur 0 -- -- 73
2020-10-22 10:00:00 9.1 4 Sudoeste 10 Nordeste 0 -- -- 86
2020-10-22 09:00:00 7.9 2 Nordeste 15 Sudoeste 0 -- -- 87
2020-10-22 08:00:00 7.5 11 Sudoeste 15 Sudoeste 0 -- -- 87
2020-10-22 07:00:00 8.2 0 Calma 8 Nordeste 0 -- -- 85
2020-10-22 06:00:00 9.3 2 Nordeste 14 Sudoeste 0 -- -- 83
2020-10-22 05:00:00 9.3 11 Sudoeste 14 Sudoeste 0 -- -- 82
2020-10-22 04:00:00 9.1 2 Sur 11 Sudoeste 0 -- -- 83
2020-10-22 03:00:00 9.6 7 Sudoeste 13 Sudoeste 0 -- -- 78
2020-10-22 02:00:00 11.3 12 Sudoeste 17 Sur 0 -- -- 75
2020-10-22 01:00:00 11.1 13 Sudoeste 18 Sudoeste 0 -- -- 75
2020-10-22 00:00:00 11.7 14 Sudoeste 30 Sudoeste 0 -- -- 71
2020-10-21 23:00:00 11.8 16 Sudoeste 23 Sudoeste 0 -- -- 70
2020-10-21 22:00:00 10.3 7 Sur 20 Sudoeste 0 -- -- 71
2020-10-21 21:00:00 11.6 13 Sudoeste 18 Sudoeste 0 -- -- 67
2020-10-21 20:00:00 14 11 Sur 29 Sudoeste 0 -- -- 62
2020-10-21 19:00:00 15.5 12 Sudoeste 37 Sudoeste 0 -- -- 54
2020-10-21 18:00:00 17.5 25 Sudoeste 47 Sudoeste 0 -- -- 45
2020-10-21 17:00:00 18 25 Sudoeste 45 Sudoeste 0 -- -- 47
2020-10-21 16:00:00 18.1 25 Sudoeste 50 Sudoeste 0 -- -- 45
2020-10-21 15:00:00 18.3 22 Sudoeste 47 Sudoeste 0 -- -- 46
2020-10-21 14:00:00 17.9 30 Sudoeste 44 Oeste 0 -- -- 47
2020-10-21 13:00:00 17 24 Sudoeste 35 Sur 0 -- -- 53
2020-10-21 12:00:00 17.7 17 Sudoeste 36 Sur 0 -- -- 51
2020-10-21 11:00:00 16.9 17 Sudoeste 32 Sudoeste 0 -- -- 54
2020-10-21 10:00:00 14 9 Sudoeste 19 Sudoeste 0 -- -- 65
2020-10-21 09:00:00 9.3 3 Oeste 29 Sudoeste 0 -- -- 79
2020-10-21 08:00:00 13.1 21 Sudoeste 33 Oeste 0 -- -- 69
2020-10-21 07:00:00 14.1 19 Sudoeste 31 Sudoeste 0 -- -- 65
2020-10-21 06:00:00 15.3 25 Sudoeste 49 Sudoeste 0 -- -- 62
2020-10-21 05:00:00 15.9 26 Sudoeste 46 Sudoeste 0 -- -- 63
2020-10-21 04:00:00 15.9 29 Sudoeste 44 Sudoeste 0 -- -- 63
2020-10-21 03:00:00 15.2 24 Sur 41 Sur 0 -- -- 55
2020-10-21 02:00:00 14.4 26 Sur 41 Sur 0 -- -- 64
2020-10-21 01:00:00 13.8 29 Sur 43 Sur 0 -- -- 71
2020-10-21 00:00:00 14.1 28 Sur 55 Sur 0 -- -- 70
2020-10-20 23:00:00 14.4 42 Sur 61 Sur 0 -- -- 70
2020-10-20 22:00:00 14 44 Sur 66 Sur 0 -- -- 74
2020-10-20 21:00:00 14 46 Sur 64 Sur 0 -- -- 74
2020-10-20 20:00:00 14.4 42 Sur 60 Sur 0 -- -- 71
2020-10-20 19:00:00 16 37 Sur 56 Sur 0 -- -- 63
2020-10-20 18:00:00 17.3 37 Sur 57 Sur 0 -- -- 56
2020-10-20 17:00:00 18.4 42 Sur 59 Sur 0 -- -- 51
2020-10-20 16:00:00 18 40 Sur 65 Sur 0 -- -- 50
2020-10-20 15:00:00 18.8 36 Sur 49 Sur 0 -- -- 47
2020-10-20 14:00:00 18.6 30 Sur 49 Sur 0 -- -- 49
2020-10-20 13:00:00 16.3 31 Sur 50 Sur 0 -- -- 56
2020-10-20 12:00:00 15.2 35 Sur 49 Sur 0 -- -- 61
2020-10-20 11:00:00 13.8 29 Sur 36 Sur 0 -- -- 67
2020-10-20 10:00:00 13.2 27 Sur 37 Sur 0 -- -- 72
2020-10-20 09:00:00 12.3 25 Sur 38 Sur 0 -- -- 76
2020-10-20 08:00:00 12.3 32 Sur 51 Sur 0 -- -- 75
2020-10-20 07:00:00 11.9 38 Sur 52 Sur 0 -- -- 79
2020-10-20 06:00:00 11.5 29 Sur 47 Sur 0 -- -- 81
2020-10-20 05:00:00 11.3 38 Sur 58 Sur 0 -- -- 83
2020-10-20 04:00:00 11.4 42 Sur 53 Sur 0 -- -- 82
2020-10-20 03:00:00 11.4 36 Sur 50 Sur 0 -- -- 82
2020-10-20 02:00:00 11.6 38 Sur 54 Sur 0 -- -- 81
2020-10-20 01:00:00 11.6 39 Sur 56 Sur 0 -- -- 81
2020-10-20 00:00:00 11.5 40 Sur 57 Sur 0 -- -- 80
2020-10-19 23:00:00 12.6 34 Sur 47 Sur 0 -- -- 72
2020-10-19 22:00:00 13.1 35 Sur 49 Sur 0 -- -- 67
2020-10-19 21:00:00 14.7 35 Sur 47 Sur 0 -- -- 60
2020-10-19 20:00:00 16.3 31 Sur 40 Sur 0 -- -- 52
2020-10-19 19:00:00 19.1 11 Sudoeste 29 Oeste 0 -- -- 34
2020-10-19 18:00:00 22.8 15 Oeste 33 Oeste 0 -- -- 28
2020-10-19 17:00:00 23.3 20 Oeste 41 Oeste 0 -- -- 27
2020-10-19 16:00:00 23.9 24 Oeste 37 Sudoeste 0 -- -- 26
2020-10-19 15:00:00 22.3 26 Sur 42 Sur 0 -- -- 29
2020-10-19 14:00:00 20.3 30 Sur 46 Sur 0 -- -- 33
2020-10-19 13:00:00 18.4 30 Sur 54 Sur 0 -- -- 39
2020-10-19 12:00:00 16 32 Sur 45 Sur 0 -- -- 52
2020-10-19 11:00:00 13.7 29 Sur 40 Sur 0 -- -- 60
2020-10-19 10:00:00 10.4 13 Sur 26 Sur 0 -- -- 75
2020-10-19 09:00:00 4.4 4 Este 11 Sudeste 0 -- -- 91
2020-10-19 08:00:00 2.1 3 Norte 8 Oeste 0 -- -- 89
2020-10-19 07:00:00 1.7 2 Oeste 9 Sudeste 0 -- -- 82
2020-10-19 06:00:00 1.8 3 Sudoeste 8 Noroeste 0 -- -- 85
2020-10-19 05:00:00 3.4 3 Nordeste 11 Sudeste 0 -- -- 80
2020-10-19 04:00:00 2.2 3 Noroeste 6 Noroeste 0 -- -- 80
2020-10-19 03:00:00 1.9 0 Calma 8 Noroeste 0 -- -- 73
2020-10-19 02:00:00 1.7 3 Oeste 4 Noroeste 0 -- -- 73
2020-10-19 01:00:00 3 0 Calma 14 Oeste 0 -- -- 67
2020-10-19 00:00:00 4.4 0 Calma 4 Sudoeste 0 -- -- 64
2020-10-18 23:00:00 5 2 Sur 13 Sudoeste 0 -- -- 59
2020-10-18 22:00:00 6.7 10 Sudoeste 15 Sudoeste 0 -- -- 53
2020-10-18 21:00:00 8.8 3 Sur 12 Este 0 -- -- 46
2020-10-18 20:00:00 11.6 3 Sudeste 8 Este 0 -- -- 37
2020-10-18 19:00:00 15.5 5 Este 12 Sudeste 0 -- -- 27
2020-10-18 18:00:00 18.4 3 Sudoeste 7 Sur 0 -- -- 20
2020-10-18 17:00:00 19.3 3 Sur 10 Sur 0 -- -- 18
2020-10-18 16:00:00 19.2 5 Este 12 Norte 0 -- -- 16
2020-10-18 15:00:00 18 4 Noroeste 10 Noroeste 0 -- -- 20
2020-10-18 14:00:00 16.7 4 Noroeste 8 Este 0 -- -- 34
2020-10-18 13:00:00 14.7 3 Nordeste 10 Sudeste 0 -- -- 43
2020-10-18 12:00:00 11.6 4 Sudeste 8 Sudeste 0 -- -- 54
2020-10-18 11:00:00 6.7 2 Nordeste 4 Nordeste 0 -- -- 65
2020-10-18 10:00:00 2.9 0 Calma 5 Sudoeste 0 -- -- 80
2020-10-18 09:00:00 -1.5 5 Sudoeste 8 Sudoeste 0 -- -- 91
2020-10-18 08:00:00 -2.6 2 Oeste 4 Oeste 0 -- -- 88
2020-10-18 07:00:00 -1.8 0 Calma 8 Sudoeste 0 -- -- 86
2020-10-18 06:00:00 -1.6 3 Oeste 5 Oeste 0 -- -- 84
2020-10-18 05:00:00 -0.9 2 Oeste 8 Oeste 0 -- -- 84
2020-10-18 04:00:00 -0.3 4 Oeste 9 Sudoeste 0 -- -- 81
2020-10-18 03:00:00 0.4 4 Oeste 7 Oeste 0 -- -- 80
2020-10-18 02:00:00 1.4 4 Oeste 6 Oeste 0 -- -- 74
2020-10-18 01:00:00 3.3 3 Oeste 9 Oeste 0 -- -- 70
2020-10-18 00:00:00 5 6 Oeste 10 Sudoeste 0 -- -- 66
2020-10-17 23:00:00 5.4 3 Oeste 10 Noroeste 0 -- -- 64
2020-10-17 22:00:00 6.8 3 Nordeste 14 Oeste 0 -- -- 60
2020-10-17 21:00:00 7.7 7 Oeste 10 Oeste 0 -- -- 57
2020-10-17 20:00:00 11.6 5 Noroeste 17 Norte 0 -- -- 47
2020-10-17 19:00:00 14.7 9 Norte 21 Norte 0 -- -- 39
2020-10-17 18:00:00 15.9 12 Norte 21 Norte 0 -- -- 35
2020-10-17 17:00:00 16.5 11 Noroeste 22 Noroeste 0 -- -- 34
2020-10-17 16:00:00 16.3 7 Oeste 19 Noroeste 0 -- -- 36
2020-10-17 15:00:00 15.5 10 Norte 21 Norte 0 -- -- 37
2020-10-17 14:00:00 14.4 10 Noroeste 21 Nordeste 0 -- -- 40
2020-10-17 13:00:00 13 13 Noroeste 24 Noroeste 0 -- -- 43
2020-10-17 12:00:00 9.6 8 Nordeste 12 Norte 0 -- -- 58
2020-10-17 11:00:00 5.4 3 Nordeste 4 Este 0 -- -- 73
2020-10-17 10:00:00 1.9 0 Calma 3 Este 0 -- -- 93
2020-10-17 09:00:00 -3 0 Calma 7 Oeste 0 -- -- 93
2020-10-17 08:00:00 -3.8 0 Calma 8 Sudoeste 0 -- -- 90
2020-10-17 07:00:00 -3.8 2 Sudoeste 6 Sudoeste 0 -- -- 90
2020-10-17 06:00:00 -3.2 2 Oeste 6 Oeste 0 -- -- 90
2020-10-17 05:00:00 -2.8 4 Oeste 5 Oeste 0 -- -- 89
2020-10-17 04:00:00 -2 3 Sudeste 6 Noroeste 0 -- -- 84
2020-10-17 03:00:00 -0.6 5 Oeste 7 Oeste 0 -- -- 87
2020-10-17 02:00:00 -0.1 2 Sudoeste 10 Sudoeste 0 -- -- 85
2020-10-17 01:00:00 0.7 7 Oeste 12 Sudoeste 0 -- -- 86
2020-10-17 00:00:00 1 6 Sudoeste 8 Sudoeste 0 -- -- 83
2020-10-16 23:00:00 2.2 3 Sudeste 8 Sudeste 0 -- -- 79
2020-10-16 22:00:00 3.5 6 Sudeste 10 Sudeste 0 -- -- 76
2020-10-16 21:00:00 5.4 3 Este 13 Norte 0 -- -- 65
2020-10-16 20:00:00 8.4 9 Norte 21 Noroeste 0 -- -- 54
2020-10-16 19:00:00 10.5 10 Norte 24 Noroeste 0 -- -- 49
2020-10-16 18:00:00 11.5 14 Norte 24 Norte 0 -- -- 45
2020-10-16 17:00:00 11.9 13 Norte 26 Norte 0 -- -- 45
2020-10-16 16:00:00 12.2 15 Noroeste 26 Noroeste 0 -- -- 45
2020-10-16 15:00:00 11.7 10 Noroeste 22 Noroeste 0 -- -- 45
2020-10-16 14:00:00 10.2 10 Noroeste 24 Noroeste 0 -- -- 47
2020-10-16 13:00:00 9.1 11 Noroeste 20 Noroeste 0 -- -- 52
2020-10-16 12:00:00 7.1 10 Noroeste 17 Noroeste 0 -- -- 64
2020-10-16 11:00:00 4.7 9 Norte 14 Norte 0 -- -- 77
2020-10-16 10:00:00 1.5 4 Nordeste 8 Noroeste 0 -- -- 88
2020-10-16 09:00:00 -1.5 6 Noroeste 10 Oeste 0 -- -- 93
2020-10-16 08:00:00 -3 3 Noroeste 13 Oeste 0 -- -- 91
2020-10-16 07:00:00 -2.6 4 Noroeste 14 Oeste 0 -- -- 91
2020-10-16 06:00:00 -3.2 6 Noroeste 10 Oeste 0 -- -- 91
2020-10-16 05:00:00 -2.5 5 Sudoeste 10 Oeste 0 -- -- 88
2020-10-16 04:00:00 -0.8 8 Oeste 10 Oeste 0 -- -- 91
2020-10-16 03:00:00 0.1 6 Oeste 12 Oeste 0 -- -- 85
2020-10-16 02:00:00 1 9 Oeste 16 Oeste 0 -- -- 84
2020-10-16 01:00:00 1 4 Oeste 15 Noroeste 0 -- -- 84
2020-10-16 00:00:00 2.7 9 Noroeste 21 Noroeste 0 -- -- 78
2020-10-15 23:00:00 3.7 13 Noroeste 25 Norte 0 -- -- 75
2020-10-15 22:00:00 4.6 15 Noroeste 26 Norte 0 -- -- 71
2020-10-15 21:00:00 6.2 14 Norte 29 Norte 0 -- -- 67
2020-10-15 20:00:00 7.5 16 Norte 30 Norte 0 -- -- 62
2020-10-15 19:00:00 9 20 Norte 37 Norte 0 -- -- 56
2020-10-15 18:00:00 10 18 Norte 33 Norte 0 -- -- 53
2020-10-15 17:00:00 10.4 18 Norte 36 Norte 0 -- -- 52
2020-10-15 16:00:00 11.6 21 Noroeste 41 Noroeste 0 -- -- 52
2020-10-15 15:00:00 11.8 24 Noroeste 41 Noroeste 0 -- -- 48
2020-10-15 14:00:00 9.3 16 Norte 34 Noroeste 0 -- -- 61
2020-10-15 13:00:00 8.7 19 Noroeste 33 Norte 0 -- -- 63
2020-10-15 12:00:00 8.5 20 Noroeste 30 Noroeste 0 -- -- 64
2020-10-15 11:00:00 6.4 12 Noroeste 22 Noroeste 0 -- -- 79
2020-10-15 10:00:00 3.7 5 Norte 15 Noroeste 0 -- -- 88
2020-10-15 09:00:00 0.8 6 Noroeste 10 Noroeste 0 -- -- 89
2020-10-15 08:00:00 0.5 3 Noroeste 12 Oeste 0 -- -- 88
2020-10-15 07:00:00 0.6 10 Oeste 13 Oeste 0 -- -- 90
2020-10-15 06:00:00 1 10 Oeste 15 Oeste 0 -- -- 90
2020-10-15 05:00:00 1.7 14 Oeste 19 Noroeste 0 -- -- 89
2020-10-15 04:00:00 2.3 9 Norte 18 Norte 0 -- -- 84
2020-10-15 03:00:00 2.7 12 Noroeste 18 Noroeste 0 -- -- 86
2020-10-15 02:00:00 3.3 10 Oeste 18 Oeste 0 -- -- 85
2020-10-15 01:00:00 3.5 11 Oeste 19 Noroeste 0 -- -- 85
2020-10-15 00:00:00 3.9 6 Oeste 23 Norte 0 -- -- 83
2020-10-14 23:00:00 5.7 15 Norte 25 Norte 0 -- -- 78
2020-10-14 22:00:00 6.5 10 Noroeste 17 Noroeste 0 -- -- 79
2020-10-14 21:00:00 7.2 8 Norte 18 Noroeste 0 -- -- 78
2020-10-14 20:00:00 7.8 12 Noroeste 22 Noroeste 0.4 -- -- 76
2020-10-14 19:00:00 9 13 Noroeste 29 Norte 0 -- -- 70
2020-10-14 18:00:00 10.3 17 Norte 35 Norte 0 -- -- 58
2020-10-14 17:00:00 12 21 Norte 38 Norte 0 -- -- 43
2020-10-14 16:00:00 13.5 22 Norte 53 Norte 0 -- -- 40
2020-10-14 15:00:00 11.3 21 Norte 40 Norte 0 -- -- 48
2020-10-14 14:00:00 11.5 22 Norte 39 Norte 0 -- -- 47
2020-10-14 13:00:00 10.9 24 Norte 40 Norte 0 -- -- 54
2020-10-14 12:00:00 9.4 19 Noroeste 31 Noroeste 0 -- -- 63
2020-10-14 11:00:00 8.5 17 Norte 28 Norte 0 -- -- 67
2020-10-14 10:00:00 8 8 Norte 14 Norte 0 -- -- 71
2020-10-14 09:00:00 7.3 10 Noroeste 21 Norte 0 -- -- 71
2020-10-14 08:00:00 7.2 16 Norte 28 Norte 0 -- -- 76
2020-10-14 07:00:00 7.3 5 Noroeste 11 Norte 0 -- -- 89
2020-10-14 06:00:00 7 8 Nordeste 17 Este 0 -- -- 88
2020-10-14 05:00:00 7 13 Este 26 Este 0 -- -- 87
2020-10-14 04:00:00 7.2 14 Este 26 Nordeste 0 -- -- 85
2020-10-14 03:00:00 7.5 11 Este 20 Este 0 -- -- 84
2020-10-14 02:00:00 8 11 Este 25 Este 0 -- -- 81
2020-10-14 01:00:00 8.1 14 Este 28 Este 0 -- -- 80
2020-10-14 00:00:00 8.4 14 Este 25 Este 0 -- -- 78
2020-10-13 23:00:00 8.4 14 Este 24 Este 0 -- -- 78
2020-10-13 22:00:00 9.1 12 Este 23 Este 0 -- -- 75
2020-10-13 21:00:00 9.9 15 Este 26 Este 0 -- -- 74
2020-10-13 20:00:00 11.8 15 Nordeste 28 Norte 0 -- -- 70
2020-10-13 19:00:00 15.2 19 Noroeste 36 Norte 0 -- -- 52
2020-10-13 18:00:00 16.7 23 Norte 39 Noroeste 0 -- -- 46
2020-10-13 17:00:00 17.3 24 Noroeste 39 Noroeste 0 -- -- 48
2020-10-13 16:00:00 17.7 22 Noroeste 40 Noroeste 0 -- -- 47
2020-10-13 15:00:00 16.8 19 Noroeste 37 Norte 0 -- -- 55
2020-10-13 14:00:00 15.8 14 Noroeste 28 Noroeste 0 -- -- 60
2020-10-13 13:00:00 15.9 15 Noroeste 31 Norte 0 -- -- 61
2020-10-13 12:00:00 14.5 18 Norte 31 Noroeste 0 -- -- 68
2020-10-13 11:00:00 -- -- -- -- -- -- -- -- --
2020-10-13 10:00:00 -- -- -- -- -- -- -- -- --
2020-10-13 09:00:00 8.8 8 Noroeste 18 Noroeste 0 -- -- 70
2020-10-13 08:00:00 8.7 10 Norte 16 Norte 0 -- -- 67
2020-10-13 07:00:00 9.4 5 Norte 9 Norte 0 -- -- 66
2020-10-13 06:00:00 9.8 4 Oeste 9 Oeste 0 -- -- 62
2020-10-13 05:00:00 8.7 3 Oeste 13 Oeste 0 -- -- 65
2020-10-13 04:00:00 8.6 6 Oeste 15 Oeste 0 -- -- 65
2020-10-13 03:00:00 9.6 6 Noroeste 10 Noroeste 0 -- -- 64
2020-10-13 02:00:00 9.1 5 Oeste 9 Oeste 0 -- -- 66
2020-10-13 01:00:00 -- -- -- -- -- -- -- -- --
2020-10-13 00:00:00 8 9 Oeste 21 Noroeste 0 -- -- 65
2020-10-12 23:00:00 8.1 10 Oeste 17 Noroeste 0 -- -- 65
2020-10-12 22:00:00 7.7 9 Noroeste 17 Noroeste 0 -- -- 64
2020-10-12 21:00:00 7.6 8 Noroeste 13 Norte 0 -- -- 63
2020-10-12 20:00:00 10.1 10 Norte 22 Norte 0 -- -- 61
2020-10-12 19:00:00 12.5 14 Norte 39 Norte 0 -- -- 50
2020-10-12 18:00:00 13.6 21 Norte 39 Norte 0 -- -- 46
2020-10-12 17:00:00 13.7 22 Norte 37 Norte 0 -- -- 46
2020-10-12 16:00:00 13.6 19 Norte 31 Norte 0 -- -- 45
2020-10-12 15:00:00 13.3 15 Norte 35 Noroeste 0 -- -- 49
2020-10-12 14:00:00 11.5 13 Norte 31 Norte 0 -- -- 55
2020-10-12 13:00:00 10.6 17 Norte 32 Norte 0 -- -- 60
2020-10-12 12:00:00 8.9 17 Norte 30 Norte 0 -- -- 66
2020-10-12 11:00:00 7.6 19 Norte 30 Norte 0 -- -- 70
2020-10-12 10:00:00 6.4 16 Norte 30 Norte 0 -- -- 76
2020-10-12 09:00:00 5.8 17 Noroeste 28 Noroeste 0 -- -- 78
2020-10-12 08:00:00 5.7 15 Noroeste 27 Noroeste 0 -- -- 80
2020-10-12 07:00:00 5.6 17 Noroeste 29 Noroeste 0 -- -- 80
2020-10-12 06:00:00 5.6 16 Norte 31 Noroeste 0 -- -- 81
2020-10-12 05:00:00 5.1 14 Noroeste 23 Noroeste 0 -- -- 80
2020-10-12 04:00:00 -- -- -- -- -- -- -- -- --
2020-10-12 03:00:00 6.7 15 Noroeste 24 Noroeste 0 -- -- 75
2020-10-12 02:00:00 6.5 13 Noroeste 25 Oeste 0 -- -- 76
2020-10-12 01:00:00 6.3 12 Norte 21 Norte 0 -- -- 75
2020-10-12 00:00:00 6.5 4 Norte 22 Norte 0 -- -- 73
2020-10-11 23:00:00 7.4 15 Norte 37 Norte 0 -- -- 72
2020-10-11 22:00:00 8 20 Norte 32 Norte 0 -- -- 66
2020-10-11 21:00:00 -- -- -- -- -- -- -- -- --
2020-10-11 20:00:00 -- -- -- -- -- -- -- -- --
2020-10-11 19:00:00 11.4 20 Norte 37 Norte 0 -- -- 52
2020-10-11 18:00:00 12.1 20 Nordeste 37 Norte 0 -- -- 48
2020-10-11 17:00:00 13 21 Norte 36 Norte 0 -- -- 46
2020-10-11 16:00:00 12.8 22 Norte 41 Norte 0 -- -- 43
2020-10-11 15:00:00 12.9 19 Norte 33 Norte 0 -- -- 44
2020-10-11 14:00:00 12.5 18 Norte 33 Norte 0 -- -- 45
2020-10-11 13:00:00 11 20 Norte 34 Nordeste 0 -- -- 51
2020-10-11 12:00:00 9.5 12 Norte 33 Nordeste 0 -- -- 57
2020-10-11 11:00:00 8.5 17 Norte 28 Nordeste 0 -- -- 62
2020-10-11 10:00:00 7.7 10 Norte 18 Noroeste 0 -- -- 66
2020-10-11 09:00:00 6.1 9 Noroeste 15 Norte 0 -- -- 74
2020-10-11 08:00:00 6.8 10 Norte 22 Norte 0 -- -- 73
2020-10-11 07:00:00 7 15 Nordeste 31 Nordeste 0 -- -- 77
2020-10-11 06:00:00 7.3 18 Nordeste 28 Norte 0 -- -- 78
2020-10-11 05:00:00 7.6 13 Norte 21 Nordeste 0 -- -- 81
2020-10-11 04:00:00 6.8 7 Norte 13 Noroeste 0 -- -- 85
2020-10-11 03:00:00 6.5 7 Norte 13 Norte 0 -- -- 81
2020-10-11 02:00:00 7.5 9 Norte 19 Nordeste 0 -- -- 76
2020-10-11 01:00:00 7.1 4 Noroeste 15 Noroeste 0 -- -- 82
2020-10-11 00:00:00 7.3 2 Noroeste 15 Norte 0 -- -- 80
2020-10-10 23:00:00 8.8 9 Norte 15 Norte 0 -- -- 77
2020-10-10 22:00:00 10.1 5 Nordeste 20 Nordeste 0 -- -- 74
2020-10-10 21:00:00 11.1 14 Nordeste 22 Nordeste 0 -- -- 72
2020-10-10 20:00:00 11.6 17 Nordeste 32 Nordeste 0 -- -- 74
2020-10-10 19:00:00 12.7 22 Nordeste 36 Este 0 -- -- 71
2020-10-10 18:00:00 14.5 26 Nordeste 38 Este 0 -- -- 70
2020-10-10 17:00:00 16.7 19 Este 40 Nordeste 0 -- -- 57
2020-10-10 16:00:00 17.8 18 Nordeste 31 Nordeste 0 -- -- 54
2020-10-10 15:00:00 17.6 10 Norte 19 Nordeste 0 -- -- 55
2020-10-10 14:00:00 17 6 Norte 14 Nordeste 0 -- -- 59
2020-10-10 13:00:00 14.6 4 Nordeste 12 Este 0 -- -- 73
2020-10-10 12:00:00 12.9 3 Noroeste 14 Este 0 -- -- 83
2020-10-10 11:00:00 12 7 Este 15 Este 0 -- -- 87
2020-10-10 10:00:00 11.3 9 Este 15 Este 0 -- -- 92
2020-10-10 09:00:00 11 7 Este 21 Nordeste 0 -- -- 93
2020-10-10 08:00:00 11.1 13 Nordeste 20 Nordeste 0 -- -- 93
2020-10-10 07:00:00 10.7 9 Nordeste 22 Este 0 -- -- 93
2020-10-10 06:00:00 10.8 13 Este 21 Este 0 -- -- 94
2020-10-10 05:00:00 10.9 14 Este 25 Nordeste 0 -- -- 95
2020-10-10 04:00:00 10.4 9 Este 20 Este 0 -- -- 94
2020-10-10 03:00:00 10.6 8 Este 14 Este 0 -- -- 93
2020-10-10 02:00:00 11.3 12 Este 23 Este 0 -- -- 91
2020-10-10 01:00:00 12.3 11 Nordeste 20 Este 0 -- -- 88
2020-10-10 00:00:00 13.5 6 Este 14 Este 0 -- -- 81
2020-10-09 23:00:00 13.1 4 Sur 17 Este 0 -- -- 75
2020-10-09 22:00:00 15.2 9 Nordeste 17 Nordeste 0 -- -- 67
2020-10-09 21:00:00 16.2 4 Sudeste 16 Este 0 -- -- 69
2020-10-09 20:00:00 18.3 9 Este 19 Este 0 -- -- 64
2020-10-09 19:00:00 21.5 13 Este 33 Este 0 -- -- 52
2020-10-09 18:00:00 25.1 12 Oeste 28 Oeste 0 -- -- 26
2020-10-09 17:00:00 25.4 14 Oeste 28 Oeste 0 -- -- 26
2020-10-09 16:00:00 25 14 Oeste 24 Noroeste 0 -- -- 30
2020-10-09 15:00:00 24.9 14 Oeste 24 Oeste 0 -- -- 33
2020-10-09 14:00:00 23.6 11 Sudeste 19 Sudeste 0 -- -- 40
2020-10-09 13:00:00 21.2 4 Este 9 Sur 0 -- -- 49
2020-10-09 12:00:00 17.6 3 Sudeste 7 Sudeste 0 -- -- 66
2020-10-09 11:00:00 13.9 4 Este 8 Sudeste 0 -- -- 83
2020-10-09 10:00:00 10.7 4 Sudeste 6 Sudeste 0 -- -- 86
2020-10-09 09:00:00 6 2 Sudoeste 6 Sudoeste 0 -- -- 95
2020-10-09 08:00:00 5.2 0 Calma 7 Sudoeste 0 -- -- 92
2020-10-09 07:00:00 5.1 2 Oeste 4 Sur 0 -- -- 91
2020-10-09 06:00:00 6.4 2 Noroeste 8 Oeste 0 -- -- 90
2020-10-09 05:00:00 6.6 0 Calma 6 Oeste 0 -- -- 89
2020-10-09 04:00:00 8.2 4 Oeste 9 Sudoeste 0 -- -- 86
2020-10-09 03:00:00 9.4 3 Oeste 9 Noroeste 0 -- -- 81
2020-10-09 02:00:00 10 5 Noroeste 8 Noroeste 0 -- -- 79
2020-10-09 01:00:00 10.8 4 Sur 8 Sudoeste 0 -- -- 77
2020-10-09 00:00:00 12.4 3 Sudoeste 5 Sudoeste 0 -- -- 73
2020-10-08 23:00:00 13.6 3 Sudoeste 12 Sudoeste 0 -- -- 69
2020-10-08 22:00:00 14.1 10 Oeste 13 Oeste 0 -- -- 65
2020-10-08 21:00:00 16.9 4 Sudoeste 11 Sudeste 0 -- -- 63
2020-10-08 20:00:00 20.1 4 Norte 9 Nordeste 0 -- -- 55
2020-10-08 19:00:00 22.4 7 Noroeste 17 Oeste 0 -- -- 40
2020-10-08 18:00:00 24.7 12 Noroeste 19 Oeste 0 -- -- 33
2020-10-08 17:00:00 25.2 8 Oeste 19 Sur 0 -- -- 33
2020-10-08 16:00:00 24.6 4 Este 22 Sur 0 -- -- 41
2020-10-08 15:00:00 24.6 12 Sur 21 Oeste 0 -- -- 43
2020-10-08 14:00:00 22.9 7 Sur 14 Sudoeste 0 -- -- 47
2020-10-08 13:00:00 21.1 5 Sur 12 Sur 0 -- -- 54
2020-10-08 12:00:00 18.3 5 Sudeste 10 Sur 0 -- -- 65
2020-10-08 11:00:00 13.4 2 Norte 7 Norte 0 -- -- 85
2020-10-08 10:00:00 9.4 5 Nordeste 6 Nordeste 0 -- -- 98
2020-10-08 09:00:00 5.2 3 Oeste 5 Oeste 0 -- -- 98
2020-10-08 08:00:00 4.9 2 Noroeste 5 Noroeste 0 -- -- 97
2020-10-08 07:00:00 5.6 4 Oeste 5 Sudoeste 0 -- -- 97
2020-10-08 06:00:00 6 0 Calma 6 Norte 0 -- -- 96
2020-10-08 05:00:00 6.1 3 Sudoeste 6 Sudeste 0 -- -- 96
2020-10-08 04:00:00 6.7 3 Sudoeste 11 Sudoeste 0 -- -- 94
2020-10-08 03:00:00 7.4 4 Sudoeste 9 Sudoeste 0 -- -- 93
2020-10-08 02:00:00 8 5 Sudoeste 8 Sudoeste 0 -- -- 93
2020-10-08 01:00:00 9.8 0 Calma 12 Este 0 -- -- 89
2020-10-08 00:00:00 10.9 4 Este 14 Este 0 -- -- 87
2020-10-07 23:00:00 12 5 Sur 26 Este 0 -- -- 86
2020-10-07 22:00:00 13.5 17 Este 27 Este 0 -- -- 84
2020-10-07 21:00:00 14.4 14 Este 24 Este 0 -- -- 79
2020-10-07 20:00:00 16.2 13 Este 19 Nordeste 0 -- -- 72
2020-10-07 19:00:00 20.2 9 Nordeste 17 Nordeste 0 -- -- 54
2020-10-07 18:00:00 21.4 8 Nordeste 26 Noroeste 0 -- -- 50
2020-10-07 17:00:00 21.1 14 Nordeste 23 Norte 0 -- -- 50
2020-10-07 16:00:00 21 14 Norte 26 Norte 0 -- -- 50
2020-10-07 15:00:00 20.7 15 Nordeste 27 Norte 0 -- -- 51
2020-10-07 14:00:00 20.3 14 Norte 25 Nordeste 0 -- -- 53
2020-10-07 13:00:00 18.7 9 Norte 23 Norte 0 -- -- 56
2020-10-07 12:00:00 16 12 Norte 22 Norte 0 -- -- 66
2020-10-07 11:00:00 13.7 8 Norte 13 Norte 0 -- -- 76
2020-10-07 10:00:00 11.6 4 Norte 16 Noroeste 0 -- -- 82
2020-10-07 09:00:00 9.5 6 Oeste 17 Oeste 0 -- -- 86
2020-10-07 08:00:00 10.4 10 Oeste 21 Oeste 0 -- -- 83
2020-10-07 07:00:00 10 9 Oeste 20 Oeste 0 -- -- 86
2020-10-07 06:00:00 10 12 Oeste 18 Oeste 0 -- -- 87
2020-10-07 05:00:00 9.8 2 Noroeste 12 Noroeste 0 -- -- 88
2020-10-07 04:00:00 9.6 3 Oeste 12 Sudeste 0 -- -- 90
2020-10-07 03:00:00 9.1 7 Sudoeste 10 Oeste 0 -- -- 93
2020-10-07 02:00:00 8.6 0 Calma 8 Oeste 0 -- -- 90
2020-10-07 01:00:00 10.8 3 Oeste 9 Oeste 0 -- -- 82
2020-10-07 00:00:00 12.7 8 Noroeste 14 Noroeste 0 -- -- 82
2020-10-06 23:00:00 12.2 5 Oeste 16 Oeste 0 -- -- 83
2020-10-06 22:00:00 13.6 10 Oeste 18 Sudoeste 0 -- -- 78
2020-10-06 21:00:00 15.6 10 Noroeste 21 Noroeste 0 -- -- 72
2020-10-06 20:00:00 16.6 10 Norte 27 Norte 0 -- -- 68
2020-10-06 19:00:00 19.7 17 Noroeste 34 Noroeste 0 -- -- 59
2020-10-06 18:00:00 21.2 21 Noroeste 38 Noroeste 0 -- -- 52
2020-10-06 17:00:00 20.6 18 Noroeste 39 Noroeste 0 -- -- 56
2020-10-06 16:00:00 19.3 20 Norte 35 Noroeste 0 -- -- 61
2020-10-06 15:00:00 18.5 16 Oeste 27 Noroeste 0 -- -- 60
2020-10-06 14:00:00 17.8 17 Noroeste 33 Noroeste 0 -- -- 64
2020-10-06 13:00:00 17.9 21 Noroeste 34 Noroeste 0 -- -- 62
2020-10-06 12:00:00 15.7 13 Noroeste 30 Noroeste 0 -- -- 68
2020-10-06 11:00:00 13.6 16 Noroeste 23 Noroeste 0 -- -- 70
2020-10-06 10:00:00 8.6 2 Este 6 Este 0 -- -- 83
2020-10-06 09:00:00 5.2 6 Sudoeste 14 Sudoeste 0 -- -- 90
2020-10-06 08:00:00 3 3 Sur 4 Sur 0 -- -- 88
2020-10-06 07:00:00 4.4 3 Oeste 16 Sudoeste 0 -- -- 84
2020-10-06 06:00:00 4 5 Sudoeste 8 Sudoeste 0 -- -- 86
2020-10-06 05:00:00 4 3 Sudoeste 6 Sur 0 -- -- 87
2020-10-06 04:00:00 4.5 0 Calma 9 Noroeste 0 -- -- 82
2020-10-06 03:00:00 4.9 2 Este 7 Sudeste 0 -- -- 82
2020-10-06 02:00:00 6.5 4 Nordeste 12 Norte 0 -- -- 75
2020-10-06 01:00:00 5.9 6 Nordeste 12 Oeste 0 -- -- 80
2020-10-06 00:00:00 7.1 8 Oeste 15 Sudoeste 0 -- -- 75
2020-10-05 23:00:00 8.3 5 Oeste 15 Noroeste 0 -- -- 68
2020-10-05 22:00:00 8 8 Oeste 12 Oeste 0 -- -- 70
2020-10-05 21:00:00 9.8 5 Noroeste 14 Noroeste 0 -- -- 63
2020-10-05 20:00:00 12 9 Norte 24 Norte 0 -- -- 55
2020-10-05 19:00:00 14.5 14 Noroeste 29 Norte 0 -- -- 47
2020-10-05 18:00:00 15.2 18 Noroeste 34 Noroeste 0 -- -- 44
2020-10-05 17:00:00 14.7 15 Noroeste 27 Norte 0 -- -- 45
2020-10-05 16:00:00 14.4 15 Noroeste 32 Norte 0 -- -- 45
2020-10-05 15:00:00 13.6 13 Noroeste 30 Norte 0 -- -- 51
2020-10-05 14:00:00 12.5 18 Norte 35 Noroeste 0 -- -- 56
2020-10-05 13:00:00 12.3 19 Noroeste 34 Noroeste 0 -- -- 59
2020-10-05 12:00:00 11 19 Norte 37 Noroeste 0 -- -- 61
2020-10-05 11:00:00 9 21 Noroeste 32 Noroeste 0 -- -- 73
2020-10-05 10:00:00 8 9 Norte 19 Noroeste 0 -- -- 79
2020-10-05 09:00:00 5.3 4 Sudoeste 18 Oeste 0 -- -- 89
2020-10-05 08:00:00 3.7 7 Oeste 13 Oeste 0 -- -- 90
2020-10-05 07:00:00 5.6 5 Noroeste 17 Noroeste 0 -- -- 84
2020-10-05 06:00:00 6.7 6 Noroeste 26 Noroeste 0 -- -- 84
2020-10-05 05:00:00 6.2 7 Noroeste 15 Noroeste 0 -- -- 87
2020-10-05 04:00:00 6 9 Oeste 15 Oeste 0 -- -- 85
2020-10-05 03:00:00 5.8 5 Sudeste 19 Noroeste 0 -- -- 85
2020-10-05 02:00:00 6.7 11 Noroeste 20 Oeste 0 -- -- 80
2020-10-05 01:00:00 7.2 10 Oeste 17 Oeste 0 -- -- 79
2020-10-05 00:00:00 6.7 3 Noroeste 17 Oeste 0 -- -- 78
2020-10-04 23:00:00 8.4 12 Oeste 23 Oeste 0 -- -- 73
2020-10-04 22:00:00 9.5 19 Oeste 63 Oeste 0 -- -- 67
2020-10-04 21:00:00 10.1 13 Oeste 27 Noroeste 0 -- -- 61
2020-10-04 20:00:00 11.3 13 Noroeste 38 Oeste 0 -- -- 56
2020-10-04 19:00:00 12.5 14 Noroeste 27 Oeste 0 -- -- 51
2020-10-04 18:00:00 11.9 15 Norte 39 Noroeste 0 -- -- 64
2020-10-04 17:00:00 12.6 15 Norte 53 Oeste 0 -- -- 59
2020-10-04 16:00:00 14.4 30 Noroeste 52 Oeste 0 -- -- 51
2020-10-04 15:00:00 13 32 Oeste 57 Oeste 0 -- -- 60
2020-10-04 14:00:00 12.1 32 Oeste 63 Oeste 0 -- -- 65
2020-10-04 13:00:00 11.3 33 Oeste 52 Oeste 0 -- -- 64
2020-10-04 12:00:00 11.1 36 Oeste 54 Oeste 0 -- -- 61
2020-10-04 11:00:00 9.8 29 Oeste 49 Oeste 0 -- -- 62
2020-10-04 10:00:00 8.6 25 Oeste 38 Oeste 0 -- -- 68
2020-10-04 09:00:00 6.6 17 Oeste 28 Oeste 0 -- -- 77
2020-10-04 08:00:00 3.8 8 Oeste 20 Oeste 0 -- -- 83
2020-10-04 07:00:00 5 12 Oeste 20 Oeste 0 -- -- 78
2020-10-04 06:00:00 5.4 14 Oeste 19 Oeste 0 -- -- 76
2020-10-04 05:00:00 6 13 Oeste 20 Oeste 0 -- -- 73
2020-10-04 04:00:00 7 12 Oeste 24 Oeste 0 -- -- 70
2020-10-04 03:00:00 6.3 15 Oeste 24 Oeste 0 -- -- 70
2020-10-04 02:00:00 5.7 15 Oeste 21 Oeste 0 -- -- 73
2020-10-04 01:00:00 6 13 Oeste 25 Oeste 0 -- -- 72
2020-10-04 00:00:00 7 14 Oeste 23 Oeste 0 -- -- 68
2020-10-03 23:00:00 8.2 12 Oeste 21 Oeste 0 -- -- 66
2020-10-03 22:00:00 9.7 9 Oeste 16 Noroeste 0 -- -- 62
2020-10-03 21:00:00 10.2 9 Noroeste 14 Noroeste 0 -- -- 60
2020-10-03 20:00:00 10.7 9 Oeste 35 Oeste 0 -- -- 56
2020-10-03 19:00:00 12.6 24 Oeste 46 Noroeste 0 -- -- 47
2020-10-03 18:00:00 12.7 17 Oeste 39 Oeste 0 -- -- 49
2020-10-03 17:00:00 13.3 24 Noroeste 43 Noroeste 0 -- -- 48
2020-10-03 16:00:00 13.6 22 Noroeste 48 Oeste 0 -- -- 46
2020-10-03 15:00:00 13.1 26 Noroeste 45 Noroeste 0 -- -- 49
2020-10-03 14:00:00 12.4 28 Noroeste 49 Oeste 0 -- -- 52
2020-10-03 13:00:00 10.7 28 Noroeste 58 Noroeste 0 -- -- 56
2020-10-03 12:00:00 9.7 28 Noroeste 45 Noroeste 0 -- -- 60
2020-10-03 11:00:00 8.6 23 Noroeste 44 Noroeste 0 -- -- 64
2020-10-03 10:00:00 6.6 20 Noroeste 34 Oeste 0 -- -- 73
2020-10-03 09:00:00 4.7 17 Noroeste 27 Oeste 0 -- -- 80
2020-10-03 08:00:00 4.3 12 Oeste 36 Oeste 0 -- -- 81
2020-10-03 07:00:00 4.4 15 Noroeste 34 Oeste 0 -- -- 80
2020-10-03 06:00:00 4.6 17 Noroeste 36 Noroeste 0 -- -- 79
2020-10-03 05:00:00 5.2 17 Noroeste 48 Oeste 0 -- -- 76
2020-10-03 04:00:00 5.2 24 Oeste 38 Noroeste 0 -- -- 76
2020-10-03 03:00:00 5.1 13 Oeste 31 Noroeste 0 -- -- 77
2020-10-03 02:00:00 5.3 15 Noroeste 27 Noroeste 0 -- -- 76
2020-10-03 01:00:00 4.9 10 Oeste 27 Oeste 0 -- -- 78
2020-10-03 00:00:00 5.5 16 Oeste 33 Noroeste 0 -- -- 74
2020-10-02 23:00:00 5.3 16 Oeste 30 Oeste 0 -- -- 75
2020-10-02 22:00:00 5.9 18 Oeste 33 Noroeste 0 -- -- 71
2020-10-02 21:00:00 6.6 17 Noroeste 29 Noroeste 0 -- -- 69
2020-10-02 20:00:00 7.3 17 Noroeste 45 Noroeste 0 -- -- 65
2020-10-02 19:00:00 9.1 23 Noroeste 42 Noroeste 0 -- -- 61
2020-10-02 18:00:00 8.4 22 Noroeste 48 Norte 0.2 -- -- 69
2020-10-02 17:00:00 5.5 25 Noroeste 59 Noroeste 1.2 -- -- 85
2020-10-02 16:00:00 7.3 18 Oeste 31 Oeste 0.2 -- -- 84
2020-10-02 15:00:00 7.2 19 Oeste 33 Noroeste 0.2 -- -- 85
2020-10-02 14:00:00 6 24 Noroeste 55 Norte 3.4 -- -- 91
2020-10-02 13:00:00 7.7 26 Noroeste 67 Noroeste 4 -- -- 90
2020-10-02 12:00:00 10.3 33 Noroeste 72 Noroeste 2.4 -- -- 85
2020-10-02 11:00:00 13.9 35 Oeste 62 Oeste 0 -- -- 80
2020-10-02 10:00:00 12.7 40 Oeste 68 Oeste 0 -- -- 77
2020-10-02 09:00:00 12.6 33 Oeste 60 Oeste 0 -- -- 73
2020-10-02 08:00:00 12.7 35 Oeste 67 Oeste 0 -- -- 72
2020-10-02 07:00:00 12.7 40 Oeste 64 Oeste 0 -- -- 69
2020-10-02 06:00:00 12.6 33 Sudoeste 49 Sudoeste 0 -- -- 68
2020-10-02 05:00:00 12.7 31 Sudoeste 48 Sudoeste 0 -- -- 68
2020-10-02 04:00:00 12.6 22 Sudoeste 39 Sudoeste 0 -- -- 69
2020-10-02 03:00:00 13.1 23 Oeste 50 Sudoeste 0 -- -- 64
2020-10-02 02:00:00 13.8 23 Oeste 44 Oeste 0 -- -- 64
2020-10-02 01:00:00 14.2 24 Oeste 38 Sudoeste 0 -- -- 65
2020-10-02 00:00:00 13.5 12 Sudoeste 27 Sudoeste 0 -- -- 70
2020-10-01 23:00:00 14.1 17 Oeste 24 Sudoeste 0 -- -- 64
2020-10-01 22:00:00 11.4 4 Oeste 9 Oeste 0 -- -- 72
2020-10-01 21:00:00 13.1 2 Nordeste 7 Nordeste 0 -- -- 65
2020-10-01 20:00:00 15.3 0 Calma 19 Nordeste 0 -- -- 61
2020-10-01 19:00:00 17.5 9 Nordeste 18 Noroeste 0 -- -- 58
2020-10-01 18:00:00 18.7 11 Norte 21 Norte 0 -- -- 53
2020-10-01 17:00:00 18.7 13 Norte 31 Norte 0 -- -- 54
2020-10-01 16:00:00 18.8 19 Norte 33 Norte 0 -- -- 53
2020-10-01 15:00:00 20.5 17 Norte 32 Noroeste 0 -- -- 46
2020-10-01 14:00:00 21 16 Noroeste 31 Noroeste 0 -- -- 42
2020-10-01 13:00:00 19.4 12 Norte 23 Noroeste 0 -- -- 44
2020-10-01 12:00:00 17.5 14 Norte 26 Norte 0 -- -- 46
2020-10-01 11:00:00 15.7 18 Norte 29 Noroeste 0 -- -- 50
2020-10-01 10:00:00 13.5 8 Norte 12 Nordeste 0 -- -- 57
2020-10-01 09:00:00 9 3 Noroeste 10 Norte 0 -- -- 72
2020-10-01 08:00:00 7.5 3 Oeste 5 Oeste 0 -- -- 73
2020-10-01 07:00:00 9.2 2 Sudeste 11 Sudeste 0 -- -- 65
2020-10-01 06:00:00 8 6 Sudeste 9 Sudeste 0 -- -- 70
2020-10-01 05:00:00 10.5 5 Sudeste 9 Oeste 0 -- -- 61
2020-10-01 04:00:00 12.7 4 Sudeste 21 Noroeste 0 -- -- 53
2020-10-01 03:00:00 13.4 7 Noroeste 16 Norte 0 -- -- 49
2020-10-01 02:00:00 12.1 6 Norte 13 Noroeste 0 -- -- 51
2020-10-01 01:00:00 10.5 3 Nordeste 10 Oeste 0 -- -- 56
2020-10-01 00:00:00 13.3 9 Oeste 19 Oeste 0 -- -- 48